createdAt,value
2018-05-18T00:01:44.128Z,101584.08
2018-05-18T00:04:47.552Z,101582.55
2018-05-18T00:07:50.861Z,101591.55
2018-05-18T00:10:54.182Z,101577.84
2018-05-18T00:13:57.490Z,101587.69
2018-05-18T00:17:00.806Z,101589.48
2018-05-18T00:20:04.888Z,101588.90
2018-05-18T00:23:08.190Z,101590.28
2018-05-18T00:26:11.513Z,101588.71
2018-05-18T00:29:15.580Z,101589.86
2018-05-18T00:32:18.897Z,101583.27
2018-05-18T00:35:22.205Z,101589.36
2018-05-18T00:38:26.284Z,101584.34
2018-05-18T00:41:29.593Z,101589.06
2018-05-18T00:44:32.921Z,101579.63
2018-05-18T00:47:36.989Z,101586.27
2018-05-18T00:50:40.317Z,101583.42
2018-05-18T00:53:43.617Z,101581.55
2018-05-18T00:56:47.715Z,101585.13
2018-05-18T00:59:51.017Z,101589.63
2018-05-18T01:02:54.325Z,101588.78
2018-05-18T01:05:58.406Z,101591.51
2018-05-18T01:09:01.711Z,101597.80
2018-05-18T01:12:05.026Z,101593.63
2018-05-18T01:15:08.329Z,101594.05
2018-05-18T01:18:12.430Z,101598.74
2018-05-18T01:21:15.728Z,101596.63
2018-05-18T01:24:19.040Z,101591.39
2018-05-18T01:27:22.345Z,101587.52
2018-05-18T01:30:26.505Z,101599.89
2018-05-18T01:33:29.738Z,101595.50
2018-05-18T01:36:33.062Z,101598.81
2018-05-18T01:39:36.370Z,101600.60
2018-05-18T01:42:39.680Z,101604.29
2018-05-18T01:45:42.976Z,101609.52
2018-05-18T01:48:46.298Z,101606.89
2018-05-18T01:51:49.614Z,101607.00
2018-05-18T01:54:52.925Z,101604.36
2018-05-18T01:57:56.997Z,101606.27
2018-05-18T02:01:00.326Z,101613.69
2018-05-18T02:04:03.634Z,101618.70
2018-05-18T02:07:07.720Z,101622.78
2018-05-18T02:10:11.021Z,101618.06
2018-05-18T02:13:14.338Z,101617.63
2018-05-18T02:16:18.405Z,101620.37
2018-05-18T02:19:21.713Z,101619.73
2018-05-18T02:22:25.013Z,101623.81
2018-05-18T02:25:28.334Z,101629.45
2018-05-18T02:28:31.633Z,101623.08
2018-05-18T02:31:35.722Z,101621.81
2018-05-18T02:34:39.033Z,101624.96
2018-05-18T02:37:42.359Z,101627.78
2018-05-18T02:40:45.657Z,101627.91
2018-05-18T02:43:48.974Z,101628.09
2018-05-18T02:46:52.277Z,101626.45
2018-05-18T02:49:55.604Z,101628.87
2018-05-18T02:52:58.913Z,101623.83
2018-05-18T02:56:03.037Z,101627.06
2018-05-18T02:59:07.107Z,101620.27
2018-05-18T03:02:10.421Z,101633.77
2018-05-18T03:05:13.729Z,101634.61
2018-05-18T03:08:17.045Z,101624.78
2018-05-18T03:11:21.127Z,101630.61
2018-05-18T03:14:24.458Z,101635.95
2018-05-18T03:17:28.534Z,101646.81
2018-05-18T03:20:31.861Z,101641.37
2018-05-18T03:23:35.174Z,101643.05
2018-05-18T03:26:38.504Z,101636.89
2018-05-18T03:29:41.813Z,101636.34
2018-05-18T03:32:45.126Z,101641.48
2018-05-18T03:35:48.433Z,101645.23
2018-05-18T03:38:51.749Z,101645.02
2018-05-18T03:41:55.832Z,101647.30
2018-05-18T03:44:59.124Z,101650.13
2018-05-18T03:48:02.427Z,101648.22
2018-05-18T03:51:05.726Z,101640.85
2018-05-18T03:54:09.062Z,101645.22
2018-05-18T03:57:12.357Z,101638.61
2018-05-18T04:00:15.668Z,101638.81
2018-05-18T04:03:36.805Z,101639.22
2018-05-18T04:06:57.720Z,101638.27
2018-05-18T04:10:01.033Z,101641.28
2018-05-18T04:13:04.345Z,101642.98
2018-05-18T04:16:07.652Z,101649.78
2018-05-18T04:19:11.717Z,101649.47
2018-05-18T04:22:15.024Z,101645.32
2018-05-18T04:25:18.328Z,101647.52
2018-05-18T04:28:21.637Z,101647.97
2018-05-18T04:31:24.948Z,101638.56
2018-05-18T04:34:29.013Z,101646.52
2018-05-18T04:37:32.326Z,101648.54
2018-05-18T04:40:35.626Z,101645.93
2018-05-18T04:43:38.940Z,101642.73
2018-05-18T04:46:42.257Z,101646.20
2018-05-18T04:49:46.317Z,101650.61
2018-05-18T04:52:49.625Z,101647.15
2018-05-18T04:55:52.938Z,101646.66
2018-05-18T04:58:56.285Z,101645.61
2018-05-18T05:02:00.339Z,101647.20
2018-05-18T05:05:03.624Z,101642.16
2018-05-18T05:08:06.958Z,101648.13
2018-05-18T05:11:11.038Z,101646.26
2018-05-18T05:14:14.341Z,101651.32
2018-05-18T05:17:17.657Z,101655.59
2018-05-18T05:20:20.961Z,101659.97
2018-05-18T05:23:25.058Z,101655.58
2018-05-18T05:26:28.374Z,101651.23
2018-05-18T05:29:32.448Z,101657.83
2018-05-18T05:32:35.753Z,101652.78
2018-05-18T05:35:39.073Z,101653.08
2018-05-18T05:38:42.377Z,101652.12
2018-05-18T05:41:46.471Z,101651.25
2018-05-18T05:44:49.781Z,101650.89
2018-05-18T05:47:53.174Z,101652.33
2018-05-18T05:50:56.409Z,101653.34
2018-05-18T05:53:59.724Z,101660.42
2018-05-18T05:57:03.033Z,101652.52
2018-05-18T06:00:06.357Z,101657.55
2018-05-18T06:03:09.673Z,101657.37
2018-05-18T06:06:13.764Z,101664.67
2018-05-18T06:09:17.068Z,101659.76
2018-05-18T06:12:20.458Z,101665.03
2018-05-18T06:15:23.701Z,101669.28
2018-05-18T06:18:27.013Z,101673.45
2018-05-18T06:21:30.317Z,101672.94
2018-05-18T06:24:33.649Z,101675.91
2018-05-18T06:27:36.957Z,101679.16
2018-05-18T06:30:40.269Z,101678.87
2018-05-18T06:33:44.345Z,101686.49
2018-05-18T06:36:47.663Z,101691.31
2018-05-18T06:39:51.734Z,101693.20
2018-05-18T06:42:55.112Z,101699.49
2018-05-18T06:45:58.429Z,101693.03
2018-05-18T06:49:01.737Z,101696.94
2018-05-18T06:52:05.040Z,101699.58
2018-05-18T06:55:08.352Z,101693.86
2018-05-18T06:58:11.658Z,101699.31
2018-05-18T07:01:15.742Z,101693.59
2018-05-18T07:04:19.052Z,101691.19
2018-05-18T07:07:22.381Z,101683.49
2018-05-18T07:10:25.753Z,101681.20
2018-05-18T07:13:29.028Z,101684.19
2018-05-18T07:16:32.330Z,101677.14
2018-05-18T07:19:36.441Z,101689.44
2018-05-18T07:22:39.745Z,101693.77
2018-05-18T07:25:43.065Z,101697.88
2018-05-18T07:28:47.141Z,101690.83
2018-05-18T07:31:50.467Z,101700.36
2018-05-18T07:34:53.777Z,101700.66
2018-05-18T07:37:57.122Z,101696.20
2018-05-18T07:41:00.433Z,101702.33
2018-05-18T07:44:03.744Z,101702.86
2018-05-18T07:47:07.062Z,101707.90
2018-05-18T07:50:11.174Z,101708.25
2018-05-18T07:53:14.460Z,101697.23
2018-05-18T07:56:17.790Z,101702.94
2018-05-18T07:59:21.139Z,101696.16
2018-05-18T08:02:24.439Z,101703.22
2018-05-18T08:05:27.755Z,101695.14
2018-05-18T08:08:31.877Z,101701.83
2018-05-18T08:11:35.955Z,101714.95
2018-05-18T08:14:39.287Z,101702.16
2018-05-18T08:17:43.678Z,101698.48
2018-05-18T08:20:46.722Z,101702.95
2018-05-18T08:23:50.041Z,101706.81
2018-05-18T08:27:11.142Z,101712.83
2018-05-18T08:30:14.441Z,101720.96
2018-05-18T08:33:17.770Z,101722.52
2018-05-18T08:36:21.084Z,101723.31
2018-05-18T08:39:24.404Z,101721.45
2018-05-18T08:42:28.493Z,101727.12
2018-05-18T08:45:31.818Z,101734.41
2018-05-18T08:48:35.137Z,101728.13
2018-05-18T08:51:38.441Z,101734.47
2018-05-18T08:54:41.762Z,101737.95
2018-05-18T08:57:45.090Z,101748.09
2018-05-18T09:00:49.205Z,101753.02
2018-05-18T09:03:53.290Z,101749.34
2018-05-18T09:06:56.637Z,101750.38
2018-05-18T09:09:59.940Z,101749.72
2018-05-18T09:13:03.276Z,101748.80
2018-05-18T09:16:06.591Z,101753.75
2018-05-18T09:19:10.692Z,101755.56
2018-05-18T09:22:14.007Z,101760.60
2018-05-18T09:25:17.328Z,101760.50
2018-05-18T09:28:20.642Z,101760.72
2018-05-18T09:31:23.969Z,101761.48
2018-05-18T09:34:27.279Z,101763.75
2018-05-18T09:37:30.605Z,101764.17
2018-05-18T09:40:33.933Z,101767.88
2018-05-18T09:43:37.246Z,101762.34
2018-05-18T09:46:40.565Z,101761.31
2018-05-18T09:49:43.882Z,101763.25
2018-05-18T09:52:47.970Z,101763.91
2018-05-18T09:55:51.285Z,101765.87
2018-05-18T09:58:54.618Z,101764.41
2018-05-18T10:01:57.924Z,101758.84
2018-05-18T10:05:01.248Z,101760.89
2018-05-18T10:08:04.578Z,101766.91
2018-05-18T10:11:07.896Z,101771.25
2018-05-18T10:14:11.233Z,101767.23
2018-05-18T10:17:14.532Z,101764.16
2018-05-18T10:20:17.860Z,101776.28
2018-05-18T10:23:21.187Z,101769.25
2018-05-18T10:26:24.500Z,101775.52
2018-05-18T10:29:27.817Z,101777.76
2018-05-18T10:32:31.130Z,101782.13
2018-05-18T10:35:34.449Z,101777.86
2018-05-18T10:38:38.527Z,101783.69
2018-05-18T10:41:41.852Z,101780.66
2018-05-18T10:44:45.178Z,101787.23
2018-05-18T10:47:48.489Z,101782.39
2018-05-18T10:50:51.812Z,101787.16
2018-05-18T10:53:55.140Z,101791.21
2018-05-18T10:56:58.442Z,101789.68
2018-05-18T11:00:02.534Z,101780.05
2018-05-18T11:03:05.849Z,101796.08
2018-05-18T11:06:09.274Z,101802.08
2018-05-18T11:09:12.585Z,101787.98
2018-05-18T11:12:15.909Z,101798.84
2018-05-18T11:15:19.223Z,101801.16
2018-05-18T11:18:22.536Z,101801.29
2018-05-18T11:21:25.849Z,101806.41
2018-05-18T11:24:29.939Z,101798.27
2018-05-18T11:27:33.250Z,101806.92
2018-05-18T11:30:37.335Z,101802.22
2018-05-18T11:33:40.675Z,101805.14
2018-05-18T11:36:44.749Z,101805.60
2018-05-18T11:39:48.089Z,101806.09
2018-05-18T11:42:51.393Z,101796.66
2018-05-18T11:45:54.750Z,101802.02
2018-05-18T11:48:58.067Z,101796.81
2018-05-18T11:52:02.148Z,101802.20
2018-05-18T11:55:05.466Z,101795.98
2018-05-18T11:58:09.552Z,101794.61
2018-05-18T12:01:12.864Z,101801.42
2018-05-18T12:04:16.182Z,101800.29
2018-05-18T12:07:20.276Z,101803.86
2018-05-18T12:10:23.594Z,101805.12
2018-05-18T12:13:27.674Z,101804.03
2018-05-18T12:16:31.013Z,101797.00
2018-05-18T12:19:35.094Z,101800.92
2018-05-18T12:22:38.515Z,101794.90
2018-05-18T12:25:42.593Z,101806.28
2018-05-18T12:28:45.925Z,101798.25
2018-05-18T12:31:49.244Z,101798.38
2018-05-18T12:34:52.581Z,101795.86
2018-05-18T12:37:55.890Z,101802.84
2018-05-18T12:40:59.229Z,101804.01
2018-05-18T12:44:03.297Z,101810.13
2018-05-18T12:47:06.618Z,101807.16
2018-05-18T12:50:09.929Z,101808.83
2018-05-18T12:53:14.022Z,101814.30
2018-05-18T12:56:17.329Z,101814.28
2018-05-18T12:59:20.648Z,101809.35
2018-05-18T13:02:23.965Z,101814.89
2018-05-18T13:05:27.288Z,101811.55
2018-05-18T13:08:30.601Z,101815.12
2018-05-18T13:11:33.921Z,101812.99
2018-05-18T13:14:38.010Z,101816.37
2018-05-18T13:17:41.349Z,101815.48
2018-05-18T13:20:44.662Z,101809.55
2018-05-18T13:23:47.984Z,101819.06
2018-05-18T13:26:51.285Z,101819.21
2018-05-18T13:29:54.610Z,101820.70
2018-05-18T13:32:57.936Z,101816.66
2018-05-18T13:36:01.284Z,101818.76
2018-05-18T13:39:04.606Z,101821.19
2018-05-18T13:42:08.685Z,101825.44
2018-05-18T13:45:12.008Z,101823.94
2018-05-18T13:48:15.321Z,101817.84
2018-05-18T13:51:19.419Z,101818.02
2018-05-18T13:54:22.729Z,101826.06
2018-05-18T13:57:26.814Z,101817.77
2018-05-18T14:00:30.109Z,101823.33
2018-05-18T14:03:33.427Z,101822.25
2018-05-18T14:06:37.512Z,101825.05
2018-05-18T14:09:40.815Z,101820.65
2018-05-18T14:12:44.142Z,101820.58
2018-05-18T14:15:48.217Z,101823.69
2018-05-18T14:18:51.561Z,101821.20
2018-05-18T14:21:54.865Z,101829.13
2018-05-18T14:24:58.183Z,101826.20
2018-05-18T14:28:01.481Z,101826.63
2018-05-18T14:31:04.795Z,101823.69
2018-05-18T14:34:08.106Z,101820.48
2018-05-18T14:37:11.452Z,101825.38
2018-05-18T14:40:14.764Z,101829.55
2018-05-18T14:43:18.073Z,101832.13
2018-05-18T14:46:21.373Z,101835.09
2018-05-18T14:49:24.691Z,101839.84
2018-05-18T14:52:28.034Z,101831.51
2018-05-18T14:55:31.349Z,101837.27
2018-05-18T14:58:34.692Z,101830.19
2018-05-18T15:01:38.018Z,101834.91
2018-05-18T15:04:42.110Z,101840.63
2018-05-18T15:07:45.422Z,101830.66
2018-05-18T15:10:49.527Z,101834.38
2018-05-18T15:13:53.593Z,101833.73
2018-05-18T15:16:56.976Z,101840.97
2018-05-18T15:20:00.238Z,101840.02
2018-05-18T15:23:04.304Z,101841.25
2018-05-18T15:26:07.626Z,101832.86
2018-05-18T15:29:10.937Z,101840.83
2018-05-18T15:32:14.255Z,101842.84
2018-05-18T15:35:17.562Z,101843.16
2018-05-18T15:38:21.093Z,101844.16
2018-05-18T15:41:24.427Z,101847.09
2018-05-18T15:44:27.732Z,101841.17
2018-05-18T15:47:31.809Z,101842.59
2018-05-18T15:50:35.121Z,101844.77
2018-05-18T15:53:38.505Z,101841.95
2018-05-18T15:56:41.825Z,101843.72
2018-05-18T15:59:45.140Z,101848.74
2018-05-18T16:02:48.461Z,101845.03
2018-05-18T16:05:51.777Z,101843.81
2018-05-18T16:08:55.093Z,101842.55
2018-05-18T16:11:58.417Z,101840.00
2018-05-18T16:15:02.499Z,101843.98
2018-05-18T16:18:05.821Z,101846.38
2018-05-18T16:21:09.142Z,101844.98
2018-05-18T16:24:13.226Z,101849.73
2018-05-18T16:27:16.539Z,101843.35
2018-05-18T16:30:21.408Z,101842.66
2018-05-18T16:33:24.774Z,101849.34
2018-05-18T16:36:28.083Z,101855.31
2018-05-18T16:39:31.390Z,101852.72
2018-05-18T16:42:34.711Z,101856.44
2018-05-18T16:45:38.021Z,101859.89
2018-05-18T16:48:41.347Z,101860.58
2018-05-18T16:51:45.428Z,101867.03
2018-05-18T16:54:48.775Z,101864.34
2018-05-18T16:57:52.851Z,101860.93
2018-05-18T17:00:56.170Z,101863.48
2018-05-18T17:04:00.239Z,101866.05
2018-05-18T17:07:03.574Z,101863.05
2018-05-18T17:10:06.881Z,101871.66
2018-05-18T17:13:10.966Z,101873.78
2018-05-18T17:16:14.298Z,101872.85
2018-05-18T17:19:17.596Z,101878.41
2018-05-18T17:22:21.721Z,101886.34
2018-05-18T17:25:25.031Z,101884.09
2018-05-18T17:28:28.390Z,101889.06
2018-05-18T17:31:31.698Z,101893.90
2018-05-18T17:34:35.779Z,101901.17
2018-05-18T17:37:39.107Z,101895.61
2018-05-18T17:40:42.409Z,101903.17
2018-05-18T17:43:46.497Z,101909.58
2018-05-18T17:46:49.817Z,101907.20
2018-05-18T17:49:53.169Z,101903.84
2018-05-18T17:52:56.483Z,101907.98
2018-05-18T17:55:59.823Z,101910.41
2018-05-18T17:59:03.124Z,101907.54
2018-05-18T18:02:06.442Z,101906.59
2018-05-18T18:05:09.765Z,101916.37
2018-05-18T18:08:13.118Z,101917.87
2018-05-18T18:11:16.428Z,101920.31
2018-05-18T18:14:19.777Z,101917.38
2018-05-18T18:17:23.859Z,101924.42
2018-05-18T18:20:28.030Z,101923.94
2018-05-18T18:23:32.101Z,101932.66
2018-05-18T18:26:35.448Z,101930.91
2018-05-18T18:29:38.771Z,101929.34
2018-05-18T18:32:42.107Z,101929.34
2018-05-18T18:35:45.500Z,101931.95
2018-05-18T18:38:49.615Z,101930.83
2018-05-18T18:41:52.932Z,101937.88
2018-05-18T18:44:57.054Z,101944.36
2018-05-18T18:48:01.139Z,101950.97
2018-05-18T18:51:04.462Z,101953.91
2018-05-18T18:54:08.556Z,101957.24
2018-05-18T18:57:11.879Z,101954.52
2018-05-18T19:00:15.961Z,101960.73
2018-05-18T19:03:19.318Z,101956.64
2018-05-18T19:06:22.631Z,101959.66
2018-05-18T19:09:25.970Z,101956.12
2018-05-18T19:12:30.053Z,101956.54
2018-05-18T19:15:33.449Z,101955.69
2018-05-18T19:18:36.767Z,101956.31
2018-05-18T19:21:40.105Z,101960.72
2018-05-18T19:24:43.414Z,101965.31
2018-05-18T19:27:46.762Z,101967.61
2018-05-18T19:30:50.073Z,101970.67
2018-05-18T19:33:54.158Z,101975.45
2018-05-18T19:36:57.485Z,101978.08
2018-05-18T19:40:01.690Z,101978.80
2018-05-18T19:43:05.017Z,101979.13
2018-05-18T19:46:08.353Z,101974.53
2018-05-18T19:49:11.649Z,101984.27
2018-05-18T19:52:14.985Z,101983.54
2018-05-18T19:55:19.078Z,101979.98
2018-05-18T19:58:22.402Z,101988.67
2018-05-18T20:01:25.720Z,101989.64
2018-05-18T20:04:29.091Z,101986.36
2018-05-18T20:07:33.166Z,101983.32
2018-05-18T20:10:36.748Z,101981.88
2018-05-18T20:13:40.071Z,101982.27
2018-05-18T20:16:43.398Z,101990.14
2018-05-18T20:19:46.746Z,101987.11
2018-05-18T20:22:50.048Z,101981.86
2018-05-18T20:25:53.360Z,101981.32
2018-05-18T20:28:56.681Z,101986.16
2018-05-18T20:31:59.985Z,101991.70
2018-05-18T20:35:04.082Z,101986.34
2018-05-18T20:38:07.412Z,101978.72
2018-05-18T20:41:11.493Z,101984.27
2018-05-18T20:44:14.798Z,101989.28
2018-05-18T20:47:18.129Z,101999.66
2018-05-18T20:50:21.441Z,101993.18
2018-05-18T20:53:24.777Z,101990.95
2018-05-18T20:56:28.089Z,101996.39
2018-05-18T20:59:31.406Z,102002.59
2018-05-18T21:02:35.489Z,102001.45
2018-05-18T21:05:38.842Z,102004.38
2018-05-18T21:08:42.137Z,102002.98
2018-05-18T21:11:45.461Z,102003.83
2018-05-18T21:14:48.778Z,102002.87
2018-05-18T21:17:52.117Z,102012.17
2018-05-18T21:20:55.424Z,102006.45
2018-05-18T21:23:58.778Z,102010.83
2018-05-18T21:27:02.085Z,102003.59
2018-05-18T21:30:06.181Z,102009.91
2018-05-18T21:33:09.500Z,102010.42
2018-05-18T21:36:12.808Z,102011.05
2018-05-18T21:39:16.890Z,102014.06
2018-05-18T21:42:20.194Z,102008.62
2018-05-18T21:45:24.285Z,102011.12
2018-05-18T21:48:27.594Z,102009.66
2018-05-18T21:51:30.917Z,102009.55
2018-05-18T21:54:35.005Z,102011.63
2018-05-18T21:57:38.341Z,102012.16
2018-05-18T22:00:41.645Z,102014.78
2018-05-18T22:03:44.965Z,102016.23
2018-05-18T22:06:48.266Z,102021.66
2018-05-18T22:09:51.582Z,102015.04
2018-05-18T22:12:54.902Z,102013.90
2018-05-18T22:15:59.014Z,102014.62
2018-05-18T22:19:03.090Z,102015.23
2018-05-18T22:22:06.420Z,102018.78
2018-05-18T22:25:09.739Z,102022.58
2018-05-18T22:28:13.062Z,102021.30
2018-05-18T22:31:16.403Z,102014.05
2018-05-18T22:34:19.713Z,102020.45
2018-05-18T22:37:23.808Z,102013.19
2018-05-18T22:40:27.129Z,102014.11
2018-05-18T22:43:31.210Z,102010.14
2018-05-18T22:46:34.521Z,102007.95
2018-05-18T22:49:37.853Z,102017.09
2018-05-18T22:52:41.178Z,102013.31
2018-05-18T22:55:44.510Z,102020.12
2018-05-18T22:58:47.823Z,102021.46
2018-05-18T23:01:51.938Z,102019.02
2018-05-18T23:04:55.250Z,102022.59
2018-05-18T23:07:58.574Z,102021.97
2018-05-18T23:11:01.883Z,102019.65
2018-05-18T23:14:05.203Z,102018.05
2018-05-18T23:17:08.522Z,102020.69
2018-05-18T23:20:12.634Z,102025.08
2018-05-18T23:23:15.942Z,102019.23
2018-05-18T23:26:20.031Z,102021.50
2018-05-18T23:29:23.349Z,102027.31
2018-05-18T23:32:27.428Z,102027.17
2018-05-18T23:35:30.745Z,102022.75
2018-05-18T23:38:34.061Z,102015.77
2018-05-18T23:41:38.158Z,102025.91
2018-05-18T23:44:41.487Z,102022.66
2018-05-18T23:47:44.801Z,102035.41
2018-05-18T23:50:48.113Z,102025.30
2018-05-18T23:53:51.424Z,102026.45
2018-05-18T23:56:54.749Z,102018.71
2018-05-18T23:59:58.826Z,102022.45
